sensor_id;sensor_type;location;lat;lon;timestamp;pressure;altitude;pressure_sealevel;temperature;humidity
79138;BME280;68544;45.566;10.238;2023-10-13T00:00:28;100253.47;;;22.34;60.43
79138;BME280;68544;45.566;10.238;2023-10-13T00:02:56;100255.88;;;22.25;60.51
79138;BME280;68544;45.566;10.238;2023-10-13T00:05:26;100258.22;;;22.38;59.94
79138;BME280;68544;45.566;10.238;2023-10-13T00:07:51;100266.00;;;22.46;59.97
79138;BME280;68544;45.566;10.238;2023-10-13T00:10:17;100260.25;;;22.48;59.69
79138;BME280;68544;45.566;10.238;2023-10-13T00:12:44;100259.34;;;22.42;60.00
79138;BME280;68544;45.566;10.238;2023-10-13T00:15:17;100250.03;;;22.22;60.24
79138;BME280;68544;45.566;10.238;2023-10-13T00:17:43;100270.22;;;22.54;59.25
79138;BME280;68544;45.566;10.238;2023-10-13T00:20:09;100262.25;;;22.52;59.64
79138;BME280;68544;45.566;10.238;2023-10-13T00:22:59;100261.41;;;22.52;59.62
79138;BME280;68544;45.566;10.238;2023-10-13T00:25:24;100257.72;;;22.63;59.19
79138;BME280;68544;45.566;10.238;2023-10-13T00:27:57;100261.03;;;22.43;60.29
79138;BME280;68544;45.566;10.238;2023-10-13T00:30:23;100260.34;;;22.58;59.94
79138;BME280;68544;45.566;10.238;2023-10-13T00:32:59;100250.91;;;22.49;60.11
79138;BME280;68544;45.566;10.238;2023-10-13T00:35:29;100247.56;;;22.47;60.08
79138;BME280;68544;45.566;10.238;2023-10-13T00:38:00;100255.56;;;22.48;60.59
79138;BME280;68544;45.566;10.238;2023-10-13T00:40:30;100245.72;;;22.52;60.03
79138;BME280;68544;45.566;10.238;2023-10-13T00:42:56;100249.34;;;22.58;59.91
79138;BME280;68544;45.566;10.238;2023-10-13T00:45:43;100246.53;;;22.53;60.16
79138;BME280;68544;45.566;10.238;2023-10-13T00:48:10;100249.75;;;22.45;60.30
79138;BME280;68544;45.566;10.238;2023-10-13T00:50:38;100247.28;;;22.43;60.69
79138;BME280;68544;45.566;10.238;2023-10-13T00:53:04;100248.63;;;22.41;60.59
79138;BME280;68544;45.566;10.238;2023-10-13T00:55:29;100251.28;;;22.36;60.70
79138;BME280;68544;45.566;10.238;2023-10-13T00:57:59;100253.91;;;22.21;61.38
79138;BME280;68544;45.566;10.238;2023-10-13T01:00:29;100250.78;;;22.39;60.86
79138;BME280;68544;45.566;10.238;2023-10-13T01:02:55;100255.34;;;22.28;60.99
79138;BME280;68544;45.566;10.238;2023-10-13T01:05:32;100255.53;;;22.22;61.31
79138;BME280;68544;45.566;10.238;2023-10-13T01:08:01;100264.41;;;21.85;62.54
79138;BME280;68544;45.566;10.238;2023-10-13T01:10:28;100257.69;;;22.15;61.73
79138;BME280;68544;45.566;10.238;2023-10-13T01:12:57;100258.19;;;22.12;61.76
79138;BME280;68544;45.566;10.238;2023-10-13T01:15:24;100248.41;;;22.21;61.34
79138;BME280;68544;45.566;10.238;2023-10-13T01:18:05;100246.72;;;22.20;61.32
79138;BME280;68544;45.566;10.238;2023-10-13T01:20:36;100249.00;;;22.28;61.10
79138;BME280;68544;45.566;10.238;2023-10-13T01:23:11;100249.44;;;22.15;61.78
79138;BME280;68544;45.566;10.238;2023-10-13T01:25:43;100254.47;;;22.01;62.41
79138;BME280;68544;45.566;10.238;2023-10-13T01:28:09;100245.56;;;21.94;62.52
79138;BME280;68544;45.566;10.238;2023-10-13T01:30:34;100223.72;;;21.82;62.88
79138;BME280;68544;45.566;10.238;2023-10-13T01:33:03;100234.53;;;21.72;63.42
79138;BME280;68544;45.566;10.238;2023-10-13T01:35:29;100233.00;;;21.81;62.97
79138;BME280;68544;45.566;10.238;2023-10-13T01:38:07;100240.41;;;21.97;62.29
79138;BME280;68544;45.566;10.238;2023-10-13T01:40:33;100215.13;;;22.00;61.88
79138;BME280;68544;45.566;10.238;2023-10-13T01:43:00;100231.63;;;22.00;62.30
79138;BME280;68544;45.566;10.238;2023-10-13T01:45:25;100230.84;;;21.83;62.69
79138;BME280;68544;45.566;10.238;2023-10-13T01:47:54;100226.50;;;21.87;62.60
79138;BME280;68544;45.566;10.238;2023-10-13T01:50:21;100240.41;;;21.97;62.35
79138;BME280;68544;45.566;10.238;2023-10-13T01:52:53;100226.00;;;21.90;62.32
79138;BME280;68544;45.566;10.238;2023-10-13T01:55:30;100235.34;;;21.73;63.36
79138;BME280;68544;45.566;10.238;2023-10-13T01:57:56;100227.72;;;21.58;63.91
79138;BME280;68544;45.566;10.238;2023-10-13T02:00:21;100235.53;;;21.28;65.20
79138;BME280;68544;45.566;10.238;2023-10-13T02:02:47;100225.41;;;21.50;64.60
79138;BME280;68544;45.566;10.238;2023-10-13T02:05:16;100225.53;;;21.39;65.11
79138;BME280;68544;45.566;10.238;2023-10-13T02:07:42;100223.38;;;21.07;65.99
79138;BME280;68544;45.566;10.238;2023-10-13T02:10:13;100229.28;;;21.16;66.02
79138;BME280;68544;45.566;10.238;2023-10-13T02:12:38;100232.97;;;21.05;66.23
79138;BME280;68544;45.566;10.238;2023-10-13T02:15:13;100224.78;;;21.27;65.33
79138;BME280;68544;45.566;10.238;2023-10-13T02:17:52;100218.06;;;21.34;64.94
79138;BME280;68544;45.566;10.238;2023-10-13T02:20:17;100224.63;;;21.33;65.16
79138;BME280;68544;45.566;10.238;2023-10-13T02:22:43;100222.81;;;21.22;65.09
79138;BME280;68544;45.566;10.238;2023-10-13T02:25:18;100224.59;;;21.50;64.09
79138;BME280;68544;45.566;10.238;2023-10-13T02:28:03;100220.22;;;21.32;65.18
79138;BME280;68544;45.566;10.238;2023-10-13T02:30:37;100225.78;;;21.37;64.72
79138;BME280;68544;45.566;10.238;2023-10-13T02:33:03;100220.81;;;21.34;64.89
79138;BME280;68544;45.566;10.238;2023-10-13T02:35:31;100223.72;;;21.11;65.72
79138;BME280;68544;45.566;10.238;2023-10-13T02:38:10;100217.13;;;21.29;65.10
79138;BME280;68544;45.566;10.238;2023-10-13T02:40:39;100226.06;;;21.19;65.03
79138;BME280;68544;45.566;10.238;2023-10-13T02:43:04;100215.31;;;21.34;64.56
79138;BME280;68544;45.566;10.238;2023-10-13T02:45:33;100214.31;;;21.23;65.05
79138;BME280;68544;45.566;10.238;2023-10-13T02:48:03;100217.78;;;20.86;66.28
79138;BME280;68544;45.566;10.238;2023-10-13T02:50:57;100224.13;;;20.86;66.39
79138;BME280;68544;45.566;10.238;2023-10-13T02:53:22;100216.13;;;20.85;66.15
79138;BME280;68544;45.566;10.238;2023-10-13T02:55:52;100213.47;;;20.73;67.05
79138;BME280;68544;45.566;10.238;2023-10-13T02:58:18;100222.03;;;20.77;66.69
79138;BME280;68544;45.566;10.238;2023-10-13T03:00:43;100216.78;;;20.92;66.01
79138;BME280;68544;45.566;10.238;2023-10-13T03:03:09;100216.06;;;20.80;66.37
79138;BME280;68544;45.566;10.238;2023-10-13T03:05:35;100221.13;;;20.88;65.77
79138;BME280;68544;45.566;10.238;2023-10-13T03:08:05;100221.16;;;21.04;65.13
79138;BME280;68544;45.566;10.238;2023-10-13T03:10:30;100219.97;;;20.84;66.02
79138;BME280;68544;45.566;10.238;2023-10-13T03:12:56;100222.13;;;20.82;66.26
79138;BME280;68544;45.566;10.238;2023-10-13T03:15:21;100225.13;;;20.97;65.53
79138;BME280;68544;45.566;10.238;2023-10-13T03:17:55;100210.16;;;20.88;65.44
79138;BME280;68544;45.566;10.238;2023-10-13T03:20:23;100230.22;;;21.21;64.45
79138;BME280;68544;45.566;10.238;2023-10-13T03:22:55;100228.78;;;20.86;66.00
79138;BME280;68544;45.566;10.238;2023-10-13T03:25:21;100223.59;;;20.73;66.43
79138;BME280;68544;45.566;10.238;2023-10-13T03:27:54;100225.94;;;20.81;66.52
79138;BME280;68544;45.566;10.238;2023-10-13T03:30:19;100214.13;;;20.80;66.14
79138;BME280;68544;45.566;10.238;2023-10-13T03:32:46;100223.28;;;20.86;66.36
79138;BME280;68544;45.566;10.238;2023-10-13T03:35:13;100215.78;;;20.65;66.99
79138;BME280;68544;45.566;10.238;2023-10-13T03:37:48;100223.28;;;20.69;66.66
79138;BME280;68544;45.566;10.238;2023-10-13T03:40:14;100218.13;;;20.73;66.86
79138;BME280;68544;45.566;10.238;2023-10-13T03:42:41;100219.28;;;20.93;65.85
79138;BME280;68544;45.566;10.238;2023-10-13T03:45:07;100214.81;;;21.04;65.26
79138;BME280;68544;45.566;10.238;2023-10-13T03:47:35;100216.13;;;21.18;64.87
79138;BME280;68544;45.566;10.238;2023-10-13T03:50:04;100225.94;;;21.31;64.61
79138;BME280;68544;45.566;10.238;2023-10-13T03:52:47;100222.03;;;21.27;64.71
79138;BME280;68544;45.566;10.238;2023-10-13T03:55:13;100217.97;;;21.29;64.51
79138;BME280;68544;45.566;10.238;2023-10-13T03:57:43;100220.31;;;21.20;64.62
79138;BME280;68544;45.566;10.238;2023-10-13T04:00:11;100217.47;;;21.32;64.63
79138;BME280;68544;45.566;10.238;2023-10-13T04:02:46;100213.56;;;21.28;64.70
79138;BME280;68544;45.566;10.238;2023-10-13T04:05:17;100220.81;;;21.34;64.56
79138;BME280;68544;45.566;10.238;2023-10-13T04:08:04;100227.13;;;21.18;65.29
79138;BME280;68544;45.566;10.238;2023-10-13T04:10:48;100227.53;;;21.27;64.98
79138;BME280;68544;45.566;10.238;2023-10-13T04:13:17;100236.47;;;21.17;65.47
79138;BME280;68544;45.566;10.238;2023-10-13T04:16:01;100228.47;;;21.15;65.18
79138;BME280;68544;45.566;10.238;2023-10-13T04:18:41;100216.28;;;20.95;65.95
79138;BME280;68544;45.566;10.238;2023-10-13T04:21:25;100218.66;;;21.03;65.82
79138;BME280;68544;45.566;10.238;2023-10-13T04:24:29;100214.06;;;21.08;65.61
79138;BME280;68544;45.566;10.238;2023-10-13T04:27:00;100216.63;;;20.98;66.15
79138;BME280;68544;45.566;10.238;2023-10-13T04:29:40;100216.66;;;21.15;65.35
79138;BME280;68544;45.566;10.238;2023-10-13T04:32:21;100223.94;;;20.93;66.22
79138;BME280;68544;45.566;10.238;2023-10-13T04:35:00;100218.72;;;21.08;66.05
79138;BME280;68544;45.566;10.238;2023-10-13T04:37:37;100223.00;;;21.15;65.48
79138;BME280;68544;45.566;10.238;2023-10-13T04:40:18;100218.81;;;21.13;65.74
79138;BME280;68544;45.566;10.238;2023-10-13T04:42:45;100211.00;;;21.05;65.99
79138;BME280;68544;45.566;10.238;2023-10-13T04:45:16;100216.91;;;20.97;66.34
79138;BME280;68544;45.566;10.238;2023-10-13T04:47:58;100224.16;;;21.03;66.23
79138;BME280;68544;45.566;10.238;2023-10-13T04:50:43;100213.94;;;20.87;66.83
79138;BME280;68544;45.566;10.238;2023-10-13T04:53:15;100219.50;;;21.20;65.73
79138;BME280;68544;45.566;10.238;2023-10-13T04:56:00;100219.22;;;21.21;65.53
79138;BME280;68544;45.566;10.238;2023-10-13T04:58:32;100221.13;;;21.21;65.60
79138;BME280;68544;45.566;10.238;2023-10-13T05:01:00;100220.06;;;21.22;65.70
79138;BME280;68544;45.566;10.238;2023-10-13T05:03:44;100208.00;;;21.23;65.57
79138;BME280;68544;45.566;10.238;2023-10-13T05:06:33;100226.63;;;21.21;66.00
79138;BME280;68544;45.566;10.238;2023-10-13T05:09:25;100219.81;;;21.07;66.52
79138;BME280;68544;45.566;10.238;2023-10-13T05:12:09;100230.63;;;21.30;65.73
79138;BME280;68544;45.566;10.238;2023-10-13T05:14:53;100225.03;;;21.25;65.78
79138;BME280;68544;45.566;10.238;2023-10-13T05:17:37;100231.97;;;21.28;65.79
79138;BME280;68544;45.566;10.238;2023-10-13T05:20:20;100225.03;;;21.25;65.69
79138;BME280;68544;45.566;10.238;2023-10-13T05:23:04;100221.06;;;21.33;65.28
79138;BME280;68544;45.566;10.238;2023-10-13T05:25:48;100236.41;;;21.50;64.59
79138;BME280;68544;45.566;10.238;2023-10-13T05:28:32;100229.28;;;21.49;64.45
79138;BME280;68544;45.566;10.238;2023-10-13T05:31:16;100235.34;;;21.51;64.61
79138;BME280;68544;45.566;10.238;2023-10-13T05:34:00;100242.78;;;21.34;65.19
79138;BME280;68544;45.566;10.238;2023-10-13T05:36:44;100250.94;;;21.29;65.72
79138;BME280;68544;45.566;10.238;2023-10-13T05:39:28;100253.41;;;21.47;65.02
79138;BME280;68544;45.566;10.238;2023-10-13T05:42:12;100258.91;;;21.47;64.84
79138;BME280;68544;45.566;10.238;2023-10-13T05:44:56;100268.81;;;21.48;65.22
79138;BME280;68544;45.566;10.238;2023-10-13T05:47:41;100273.88;;;21.56;64.64
79138;BME280;68544;45.566;10.238;2023-10-13T05:50:07;100257.75;;;21.43;64.77
79138;BME280;68544;45.566;10.238;2023-10-13T05:52:39;100278.72;;;21.49;64.67
79138;BME280;68544;45.566;10.238;2023-10-13T05:55:27;100277.75;;;21.39;65.46
79138;BME280;68544;45.566;10.238;2023-10-13T05:58:11;100277.06;;;21.48;64.54
79138;BME280;68544;45.566;10.238;2023-10-13T06:00:55;100274.16;;;21.21;65.30
79138;BME280;68544;45.566;10.238;2023-10-13T06:03:39;100287.88;;;21.38;65.07
79138;BME280;68544;45.566;10.238;2023-10-13T06:06:23;100287.16;;;21.43;64.83
79138;BME280;68544;45.566;10.238;2023-10-13T06:09:07;100286.31;;;21.42;64.86
79138;BME280;68544;45.566;10.238;2023-10-13T06:11:51;100290.50;;;21.66;63.56
79138;BME280;68544;45.566;10.238;2023-10-13T06:14:35;100297.28;;;21.42;65.25
79138;BME280;68544;45.566;10.238;2023-10-13T06:17:19;100305.59;;;21.31;66.17
79138;BME280;68544;45.566;10.238;2023-10-13T06:20:04;100293.06;;;21.35;65.99
79138;BME280;68544;45.566;10.238;2023-10-13T06:22:49;100301.38;;;21.23;66.35
79138;BME280;68544;45.566;10.238;2023-10-13T06:25:33;100306.97;;;21.28;66.32
79138;BME280;68544;45.566;10.238;2023-10-13T06:28:17;100306.59;;;21.41;65.54
79138;BME280;68544;45.566;10.238;2023-10-13T06:31:03;100311.09;;;21.31;65.88
79138;BME280;68544;45.566;10.238;2023-10-13T06:33:31;100303.22;;;21.34;65.01
79138;BME280;68544;45.566;10.238;2023-10-13T06:36:00;100315.84;;;21.35;65.64
79138;BME280;68544;45.566;10.238;2023-10-13T06:38:26;100315.03;;;21.51;64.29
79138;BME280;68544;45.566;10.238;2023-10-13T06:40:57;100318.94;;;21.55;65.16
79138;BME280;68544;45.566;10.238;2023-10-13T06:43:23;100320.41;;;21.63;64.90
79138;BME280;68544;45.566;10.238;2023-10-13T06:45:49;100324.00;;;21.63;65.23
79138;BME280;68544;45.566;10.238;2023-10-13T06:48:37;100331.81;;;21.71;64.39
79138;BME280;68544;45.566;10.238;2023-10-13T06:51:05;100330.97;;;21.87;63.96
79138;BME280;68544;45.566;10.238;2023-10-13T06:53:43;100338.34;;;21.82;63.63
79138;BME280;68544;45.566;10.238;2023-10-13T06:56:12;100325.16;;;21.67;64.08
79138;BME280;68544;45.566;10.238;2023-10-13T06:58:45;100333.56;;;21.77;63.74
79138;BME280;68544;45.566;10.238;2023-10-13T07:01:12;100331.34;;;21.74;63.91
79138;BME280;68544;45.566;10.238;2023-10-13T07:03:42;100344.72;;;21.87;63.64
79138;BME280;68544;45.566;10.238;2023-10-13T07:06:08;100342.56;;;21.89;63.15
79138;BME280;68544;45.566;10.238;2023-10-13T07:08:43;100352.00;;;21.93;63.79
79138;BME280;68544;45.566;10.238;2023-10-13T07:11:26;100352.00;;;21.93;64.10
79138;BME280;68544;45.566;10.238;2023-10-13T07:14:07;100350.03;;;22.11;63.22
79138;BME280;68544;45.566;10.238;2023-10-13T07:16:42;100357.47;;;22.10;63.61
79138;BME280;68544;45.566;10.238;2023-10-13T07:19:12;100354.63;;;22.05;63.71
79138;BME280;68544;45.566;10.238;2023-10-13T07:21:43;100362.88;;;22.05;64.16
79138;BME280;68544;45.566;10.238;2023-10-13T07:24:11;100363.28;;;22.14;64.08
79138;BME280;68544;45.566;10.238;2023-10-13T07:26:37;100357.84;;;22.19;62.96
79138;BME280;68544;45.566;10.238;2023-10-13T07:29:11;100362.78;;;22.00;63.31
79138;BME280;68544;45.566;10.238;2023-10-13T07:31:36;100351.81;;;22.22;62.32
79138;BME280;68544;45.566;10.238;2023-10-13T07:34:04;100357.34;;;22.43;61.65
79138;BME280;68544;45.566;10.238;2023-10-13T07:36:40;100354.91;;;22.47;61.40
79138;BME280;68544;45.566;10.238;2023-10-13T07:39:08;100347.81;;;22.51;61.43
79138;BME280;68544;45.566;10.238;2023-10-13T07:41:50;100361.13;;;22.59;61.24
79138;BME280;68544;45.566;10.238;2023-10-13T07:44:19;100355.44;;;22.65;61.22
79138;BME280;68544;45.566;10.238;2023-10-13T07:46:46;100363.69;;;22.65;60.72
79138;BME280;68544;45.566;10.238;2023-10-13T07:49:23;100364.59;;;22.71;60.05
79138;BME280;68544;45.566;10.238;2023-10-13T07:51:49;100365.41;;;22.71;59.93
79138;BME280;68544;45.566;10.238;2023-10-13T07:54:14;100361.66;;;22.77;59.50
79138;BME280;68544;45.566;10.238;2023-10-13T07:56:47;100360.84;;;22.82;58.70
79138;BME280;68544;45.566;10.238;2023-10-13T07:59:12;100361.88;;;22.98;58.30
79138;BME280;68544;45.566;10.238;2023-10-13T08:01:40;100368.53;;;22.80;58.28
79138;BME280;68544;45.566;10.238;2023-10-13T08:04:09;100376.13;;;22.68;58.16
79138;BME280;68544;45.566;10.238;2023-10-13T08:06:38;100365.94;;;22.90;56.88
79138;BME280;68544;45.566;10.238;2023-10-13T08:09:06;100363.19;;;22.90;57.00
79138;BME280;68544;45.566;10.238;2023-10-13T08:11:37;100364.81;;;22.91;56.30
79138;BME280;68544;45.566;10.238;2023-10-13T08:14:03;100375.16;;;22.79;56.38
79138;BME280;68544;45.566;10.238;2023-10-13T08:16:40;100370.22;;;23.08;55.46
79138;BME280;68544;45.566;10.238;2023-10-13T08:19:21;100365.34;;;23.15;54.73
79138;BME280;68544;45.566;10.238;2023-10-13T08:21:54;100370.59;;;23.16;55.09
79138;BME280;68544;45.566;10.238;2023-10-13T08:24:24;100370.63;;;22.68;56.48
79138;BME280;68544;45.566;10.238;2023-10-13T08:26:52;100372.91;;;22.76;56.85
79138;BME280;68544;45.566;10.238;2023-10-13T08:29:36;100367.41;;;22.76;55.70
79138;BME280;68544;45.566;10.238;2023-10-13T08:32:24;100369.41;;;23.07;54.61
79138;BME280;68544;45.566;10.238;2023-10-13T08:34:53;100370.03;;;23.14;54.64
79138;BME280;68544;45.566;10.238;2023-10-13T08:37:18;100366.28;;;23.25;53.81
79138;BME280;68544;45.566;10.238;2023-10-13T08:39:51;100371.34;;;23.33;53.99
79138;BME280;68544;45.566;10.238;2023-10-13T08:42:32;100377.13;;;23.64;52.91
79138;BME280;68544;45.566;10.238;2023-10-13T08:45:16;100378.84;;;23.70;52.84
79138;BME280;68544;45.566;10.238;2023-10-13T08:47:51;100380.84;;;23.47;53.30
79138;BME280;68544;45.566;10.238;2023-10-13T08:50:48;100383.25;;;23.39;53.89
79138;BME280;68544;45.566;10.238;2023-10-13T08:56:02;100381.38;;;23.44;53.75
79138;BME280;68544;45.566;10.238;2023-10-13T08:58:53;100384.63;;;23.73;52.96
79138;BME280;68544;45.566;10.238;2023-10-13T09:01:19;100383.19;;;23.97;52.29
79138;BME280;68544;45.566;10.238;2023-10-13T09:04:05;100383.91;;;23.83;52.67
79138;BME280;68544;45.566;10.238;2023-10-13T09:06:57;100388.00;;;24.12;52.29
79138;BME280;68544;45.566;10.238;2023-10-13T09:09:32;100391.66;;;24.22;51.94
79138;BME280;68544;45.566;10.238;2023-10-13T09:12:18;100387.25;;;24.31;51.92
79138;BME280;68544;45.566;10.238;2023-10-13T09:14:52;100386.22;;;24.01;52.74
79138;BME280;68544;45.566;10.238;2023-10-13T09:17:25;100395.63;;;24.42;51.95
79138;BME280;68544;45.566;10.238;2023-10-13T09:20:00;100379.75;;;24.74;50.57
79138;BME280;68544;45.566;10.238;2023-10-13T09:22:47;100384.63;;;24.57;50.95
79138;BME280;68544;45.566;10.238;2023-10-13T09:25:22;100381.22;;;24.96;50.00
79138;BME280;68544;45.566;10.238;2023-10-13T09:27:48;100379.03;;;25.14;50.05
79138;BME280;68544;45.566;10.238;2023-10-13T09:30:16;100385.16;;;25.36;49.23
79138;BME280;68544;45.566;10.238;2023-10-13T09:32:59;100381.34;;;25.47;48.25
79138;BME280;68544;45.566;10.238;2023-10-13T09:35:27;100377.75;;;25.56;48.02
79138;BME280;68544;45.566;10.238;2023-10-13T09:37:54;100375.53;;;25.63;48.49
79138;BME280;68544;45.566;10.238;2023-10-13T09:40:22;100374.69;;;25.73;48.18
79138;BME280;68544;45.566;10.238;2023-10-13T09:42:55;100373.53;;;25.24;49.07
79138;BME280;68544;45.566;10.238;2023-10-13T09:45:28;100373.00;;;25.87;47.72
79138;BME280;68544;45.566;10.238;2023-10-13T09:47:55;100368.31;;;25.88;47.68
79138;BME280;68544;45.566;10.238;2023-10-13T09:50:26;100361.13;;;26.86;44.71
79138;BME280;68544;45.566;10.238;2023-10-13T09:53:00;100360.91;;;27.60;42.83
79138;BME280;68544;45.566;10.238;2023-10-13T09:55:34;100360.97;;;27.83;42.17
79138;BME280;68544;45.566;10.238;2023-10-13T09:58:06;100353.84;;;28.30;40.96
79138;BME280;68544;45.566;10.238;2023-10-13T10:00:57;100350.44;;;28.80;39.80
79138;BME280;68544;45.566;10.238;2023-10-13T10:03:32;100351.59;;;28.79;39.90
79138;BME280;68544;45.566;10.238;2023-10-13T10:06:01;100344.88;;;31.89;34.15
79138;BME280;68544;45.566;10.238;2023-10-13T10:08:33;100348.41;;;32.82;31.91
79138;BME280;68544;45.566;10.238;2023-10-13T10:11:23;100342.91;;;33.16;30.91
79138;BME280;68544;45.566;10.238;2023-10-13T10:14:07;100343.19;;;34.96;27.98
79138;BME280;68544;45.566;10.238;2023-10-13T10:19:12;100332.13;;;34.03;29.58
79138;BME280;68544;45.566;10.238;2023-10-13T10:21:37;100323.53;;;35.05;27.37
79138;BME280;68544;45.566;10.238;2023-10-13T10:24:14;100322.91;;;37.14;24.59
79138;BME280;68544;45.566;10.238;2023-10-13T10:27:00;100327.03;;;38.31;23.09
79138;BME280;68544;45.566;10.238;2023-10-13T10:29:25;100316.00;;;39.46;21.51
79138;BME280;68544;45.566;10.238;2023-10-13T10:31:50;100313.75;;;40.61;19.47
79138;BME280;68544;45.566;10.238;2023-10-13T10:34:16;100310.47;;;40.37;20.06
79138;BME280;68544;45.566;10.238;2023-10-13T10:36:48;100312.88;;;39.13;21.31
79138;BME280;68544;45.566;10.238;2023-10-13T10:39:18;100300.94;;;40.22;20.00
79138;BME280;68544;45.566;10.238;2023-10-13T10:41:44;100305.91;;;39.45;20.96
79138;BME280;68544;45.566;10.238;2023-10-13T10:44:13;100304.88;;;38.80;21.63
79138;BME280;68544;45.566;10.238;2023-10-13T10:46:41;100297.16;;;40.14;19.59
79138;BME280;68544;45.566;10.238;2023-10-13T10:49:17;100305.09;;;41.66;18.76
79138;BME280;68544;45.566;10.238;2023-10-13T10:51:53;100290.00;;;41.99;16.98
79138;BME280;68544;45.566;10.238;2023-10-13T10:54:23;100288.31;;;42.31;17.01
79138;BME280;68544;45.566;10.238;2023-10-13T10:56:55;100292.53;;;43.09;15.79
79138;BME280;68544;45.566;10.238;2023-10-13T10:59:21;100284.00;;;42.51;16.09
79138;BME280;68544;45.566;10.238;2023-10-13T11:01:50;100276.81;;;41.73;17.26
79138;BME280;68544;45.566;10.238;2023-10-13T11:04:18;100281.97;;;41.01;17.46
79138;BME280;68544;45.566;10.238;2023-10-13T11:06:53;100267.94;;;41.41;17.12
79138;BME280;68544;45.566;10.238;2023-10-13T11:09:33;100271.50;;;41.05;17.83
79138;BME280;68544;45.566;10.238;2023-10-13T11:14:40;100263.78;;;40.50;18.58
79138;BME280;68544;45.566;10.238;2023-10-13T11:17:05;100255.50;;;41.90;17.09
79138;BME280;68544;45.566;10.238;2023-10-13T11:19:44;100253.91;;;43.08;16.18
79138;BME280;68544;45.566;10.238;2023-10-13T11:22:36;100252.97;;;42.25;16.27
79138;BME280;68544;45.566;10.238;2023-10-13T11:25:04;100251.56;;;42.52;16.51
79138;BME280;68544;45.566;10.238;2023-10-13T11:27:35;100243.28;;;42.29;16.31
79138;BME280;68544;45.566;10.238;2023-10-13T11:30:17;100247.47;;;41.62;16.82
79138;BME280;68544;45.566;10.238;2023-10-13T11:33:05;100240.06;;;41.50;16.27
79138;BME280;68544;45.566;10.238;2023-10-13T11:35:35;100235.25;;;41.21;16.28
79138;BME280;68544;45.566;10.238;2023-10-13T11:38:35;100224.78;;;38.53;19.22
79138;BME280;68544;45.566;10.238;2023-10-13T11:41:10;100232.06;;;37.76;19.63
79138;BME280;68544;45.566;10.238;2023-10-13T11:46:13;100217.88;;;37.30;19.96
79138;BME280;68544;45.566;10.238;2023-10-13T11:48:42;100218.53;;;38.13;19.19
79138;BME280;68544;45.566;10.238;2023-10-13T11:51:14;100216.81;;;37.77;19.78
79138;BME280;68544;45.566;10.238;2023-10-13T11:53:44;100220.34;;;38.21;19.89
79138;BME280;68544;45.566;10.238;2023-10-13T11:56:19;100212.09;;;37.81;20.26
79138;BME280;68544;45.566;10.238;2023-10-13T11:58:48;100207.06;;;37.75;19.99
79138;BME280;68544;45.566;10.238;2023-10-13T12:01:15;100201.94;;;38.62;19.43
79138;BME280;68544;45.566;10.238;2023-10-13T12:03:45;100201.25;;;38.30;19.36
79138;BME280;68544;45.566;10.238;2023-10-13T12:06:30;100196.91;;;36.99;20.96
79138;BME280;68544;45.566;10.238;2023-10-13T12:09:08;100187.25;;;35.97;22.06
79138;BME280;68544;45.566;10.238;2023-10-13T12:11:56;100184.91;;;35.09;22.76
79138;BME280;68544;45.566;10.238;2023-10-13T12:14:25;100186.34;;;35.15;22.87
79138;BME280;68544;45.566;10.238;2023-10-13T12:16:55;100185.94;;;34.43;24.17
79138;BME280;68544;45.566;10.238;2023-10-13T12:19:23;100188.53;;;33.89;24.76
79138;BME280;68544;45.566;10.238;2023-10-13T12:21:55;100190.59;;;33.17;25.38
79138;BME280;68544;45.566;10.238;2023-10-13T12:24:21;100187.97;;;32.78;25.68
79138;BME280;68544;45.566;10.238;2023-10-13T12:27:16;100188.78;;;33.12;24.76
79138;BME280;68544;45.566;10.238;2023-10-13T12:29:51;100183.19;;;32.78;25.35
79138;BME280;68544;45.566;10.238;2023-10-13T12:32:18;100179.41;;;32.48;26.48
79138;BME280;68544;45.566;10.238;2023-10-13T12:34:59;100177.25;;;32.45;26.80
79138;BME280;68544;45.566;10.238;2023-10-13T12:37:25;100177.25;;;32.45;27.47
79138;BME280;68544;45.566;10.238;2023-10-13T12:40:13;100184.63;;;30.79;29.84
79138;BME280;68544;45.566;10.238;2023-10-13T12:42:58;100169.16;;;31.70;28.82
79138;BME280;68544;45.566;10.238;2023-10-13T12:45:43;100171.56;;;31.55;28.75
79138;BME280;68544;45.566;10.238;2023-10-13T12:48:27;100171.69;;;31.50;28.78
79138;BME280;68544;45.566;10.238;2023-10-13T12:51:11;100164.72;;;31.39;28.54
79138;BME280;68544;45.566;10.238;2023-10-13T12:53:52;100165.78;;;31.21;28.29
79138;BME280;68544;45.566;10.238;2023-10-13T12:56:19;100159.69;;;30.74;29.32
79138;BME280;68544;45.566;10.238;2023-10-13T12:58:51;100162.22;;;30.62;29.52
79138;BME280;68544;45.566;10.238;2023-10-13T13:01:21;100155.22;;;30.73;29.49
79138;BME280;68544;45.566;10.238;2023-10-13T13:03:47;100151.81;;;30.76;29.00
79138;BME280;68544;45.566;10.238;2023-10-13T13:06:17;100150.56;;;30.11;30.01
79138;BME280;68544;45.566;10.238;2023-10-13T13:08:44;100144.66;;;30.12;30.13
79138;BME280;68544;45.566;10.238;2023-10-13T13:11:10;100143.03;;;29.98;30.42
79138;BME280;68544;45.566;10.238;2023-10-13T13:13:36;100141.84;;;29.77;31.13
79138;BME280;68544;45.566;10.238;2023-10-13T13:16:01;100134.16;;;30.09;30.79
79138;BME280;68544;45.566;10.238;2023-10-13T13:18:28;100136.25;;;29.77;31.61
79138;BME280;68544;45.566;10.238;2023-10-13T13:20:54;100133.75;;;29.61;31.83
79138;BME280;68544;45.566;10.238;2023-10-13T13:23:22;100133.34;;;29.95;31.18